Dubre, Kentucky
Current Conditions -  °F | °C
As of 10:55 PM on Thursday 30 Oct 2014 (Local Time) from KGLW Reporting Station
Overcast Overcast  
Wind Chill: 44°   Ceiling: 10000
Heat Index: 44°   Visibility: 10mi
Dew Point: 43°   Wind: 0mph
Humidity: 95%   Direction: NA
Pressure: 30.04"   Gusts: NA
Location:  36.84°N, 85.53°W
Report Text: KGLW 310355Z AUTO 00000KT 10SM OVC100 07/06 A3004 RMK AO2 T00670060 401560010
Loading
Personal Weather Stations






























Interactive Weather Map New forecast layout! Learn more

10-Day Weather Forecast

Advertisements
Track Severe Weather on mobile